createdAt,value
2023-01-31T00:00:24.557Z,50.53
2023-01-31T00:02:54.559Z,45.00
2023-01-31T00:05:23.193Z,43.13
2023-01-31T00:07:51.760Z,48.20
2023-01-31T00:10:20.486Z,46.27
2023-01-31T00:12:49.085Z,47.10
2023-01-31T00:15:18.689Z,47.53
2023-01-31T00:17:47.478Z,42.17
2023-01-31T00:20:18.853Z,40.47
2023-01-31T00:22:48.488Z,47.40
2023-01-31T00:25:17.435Z,46.47
2023-01-31T00:27:46.281Z,43.97
2023-01-31T00:30:14.976Z,40.23
2023-01-31T00:32:43.500Z,45.53
2023-01-31T00:35:12.031Z,40.67
2023-01-31T00:37:42.111Z,48.43
2023-01-31T00:40:12.179Z,47.10
2023-01-31T00:42:40.683Z,48.03
2023-01-31T00:45:10.052Z,47.77
2023-01-31T00:47:38.847Z,44.97
2023-01-31T00:50:07.976Z,43.77
2023-01-31T00:52:36.881Z,46.63
2023-01-31T00:55:07.498Z,44.63
2023-01-31T00:57:36.419Z,42.70
2023-01-31T01:00:06.391Z,43.73
2023-01-31T01:02:35.698Z,41.60
2023-01-31T01:05:04.278Z,45.00
2023-01-31T01:07:33.038Z,43.07
2023-01-31T01:10:01.651Z,45.73
2023-01-31T01:12:32.028Z,42.57
2023-01-31T01:15:00.721Z,44.63
2023-01-31T01:17:29.296Z,39.37
2023-01-31T01:19:57.921Z,40.40
2023-01-31T01:22:26.515Z,38.20
2023-01-31T01:24:55.165Z,40.77
2023-01-31T01:27:23.864Z,40.07
2023-01-31T01:29:53.772Z,38.77
2023-01-31T01:32:22.368Z,36.43
2023-01-31T01:34:51.016Z,33.93
2023-01-31T01:37:21.847Z,38.50
2023-01-31T01:39:52.065Z,42.33
2023-01-31T01:42:26.287Z,37.73
2023-01-31T01:44:57.847Z,37.67
2023-01-31T01:47:36.953Z,39.07
2023-01-31T01:50:14.799Z,39.37
2023-01-31T01:52:47.238Z,38.07
2023-01-31T01:55:22.896Z,41.17
2023-01-31T01:58:00.829Z,42.27
2023-01-31T02:00:34.580Z,41.10
2023-01-31T02:03:05.205Z,45.43
2023-01-31T02:05:39.987Z,40.07
2023-01-31T02:08:10.299Z,39.27
2023-01-31T02:10:45.265Z,43.83
2023-01-31T02:13:14.788Z,36.87
2023-01-31T02:15:44.880Z,43.93
2023-01-31T02:18:14.293Z,40.80
2023-01-31T02:21:21.512Z,41.87
2023-01-31T02:24:14.787Z,36.80
2023-01-31T02:27:10.409Z,37.27
2023-01-31T02:29:58.642Z,41.43
2023-01-31T02:32:48.175Z,37.37
2023-01-31T02:35:25.858Z,35.40
2023-01-31T02:38:03.063Z,43.00
2023-01-31T02:40:39.487Z,43.23
2023-01-31T02:43:14.978Z,42.27
2023-01-31T02:45:51.200Z,45.97
2023-01-31T02:48:34.928Z,40.57
2023-01-31T02:51:07.407Z,12.35
2023-01-31T02:53:38.573Z,34.63
2023-01-31T02:56:18.283Z,53.93
2023-01-31T02:58:53.719Z,45.13
2023-01-31T03:01:28.096Z,42.50
2023-01-31T03:04:01.566Z,49.90
2023-01-31T03:07:01.966Z,38.83
2023-01-31T03:09:47.785Z,29.47
2023-01-31T03:12:32.227Z,34.17
2023-01-31T03:15:13.749Z,21.47
2023-01-31T03:17:50.328Z,28.37
2023-01-31T03:20:24.323Z,32.20
2023-01-31T03:22:58.189Z,32.10
2023-01-31T03:25:30.473Z,32.70
2023-01-31T03:28:01.301Z,34.13
2023-01-31T03:30:36.304Z,32.73
2023-01-31T03:33:12.066Z,31.63
2023-01-31T03:35:44.664Z,31.20
2023-01-31T03:38:18.806Z,37.27
2023-01-31T03:40:54.376Z,39.43
2023-01-31T03:43:29.581Z,37.90
2023-01-31T03:46:02.234Z,40.87
2023-01-31T03:48:34.547Z,34.60
2023-01-31T03:51:09.386Z,30.53
2023-01-31T03:53:42.361Z,31.57
2023-01-31T03:56:17.139Z,34.67
2023-01-31T03:58:51.050Z,35.63
2023-01-31T04:01:21.136Z,40.33
2023-01-31T04:03:54.438Z,35.17
2023-01-31T04:06:24.358Z,42.13
2023-01-31T04:08:55.149Z,39.27
2023-01-31T04:11:27.474Z,39.00
2023-01-31T04:13:56.358Z,37.30
2023-01-31T04:16:25.022Z,35.07
2023-01-31T04:18:53.600Z,34.70
2023-01-31T04:21:23.553Z,44.13
2023-01-31T04:23:52.219Z,41.27
2023-01-31T04:26:20.854Z,42.73
2023-01-31T04:28:49.419Z,40.37
2023-01-31T04:31:18.213Z,43.53
2023-01-31T04:33:46.927Z,51.73
2023-01-31T04:36:15.515Z,42.63
2023-01-31T04:38:45.394Z,42.70
2023-01-31T04:41:13.909Z,37.87
2023-01-31T04:43:42.444Z,41.17
2023-01-31T04:46:10.922Z,36.73
2023-01-31T04:48:40.496Z,32.20
2023-01-31T04:51:09.626Z,38.87
2023-01-31T04:53:38.441Z,25.70
2023-01-31T04:56:09.151Z,31.83
2023-01-31T04:58:37.758Z,31.00
2023-01-31T05:01:06.569Z,26.00
2023-01-31T05:03:35.453Z,25.17
2023-01-31T05:06:04.080Z,26.33
2023-01-31T05:08:32.835Z,17.88
2023-01-31T05:11:03.889Z,42.23
2023-01-31T05:13:38.297Z,29.47
2023-01-31T05:16:08.751Z,26.33
2023-01-31T05:18:37.626Z,23.73
2023-01-31T05:21:07.129Z,22.80
2023-01-31T05:23:36.144Z,20.70
2023-01-31T05:26:05.356Z,19.77
2023-01-31T05:28:35.265Z,21.67
2023-01-31T05:31:07.044Z,25.73
2023-01-31T05:33:36.256Z,23.00
2023-01-31T05:36:05.989Z,22.77
2023-01-31T05:38:34.740Z,20.65
2023-01-31T05:41:03.343Z,13.87
2023-01-31T05:43:32.431Z,13.00
2023-01-31T05:46:02.606Z,18.52
2023-01-31T05:48:31.163Z,12.57
2023-01-31T05:50:59.822Z,15.85
2023-01-31T05:53:28.388Z,20.23
2023-01-31T05:55:56.879Z,48.60
2023-01-31T05:58:25.402Z,40.63
2023-01-31T06:00:57.052Z,34.30
2023-01-31T06:03:27.039Z,17.25
2023-01-31T06:05:55.811Z,13.93
2023-01-31T06:08:24.560Z,52.25
2023-01-31T06:10:53.067Z,40.23
2023-01-31T06:13:21.626Z,17.90
2023-01-31T06:15:51.963Z,14.30
2023-01-31T06:18:20.497Z,47.60
2023-01-31T06:20:50.461Z,40.50
2023-01-31T06:23:19.120Z,38.20
2023-01-31T06:25:54.510Z,34.97
2023-01-31T06:28:24.099Z,28.17
2023-01-31T06:30:52.778Z,33.57
2023-01-31T06:33:22.723Z,35.83
2023-01-31T06:35:54.780Z,35.10
2023-01-31T06:38:23.552Z,31.57
2023-01-31T06:40:52.532Z,32.67
2023-01-31T06:43:21.058Z,34.43
2023-01-31T06:45:50.358Z,36.50
2023-01-31T06:48:19.816Z,38.00
2023-01-31T06:50:48.685Z,30.30
2023-01-31T06:53:18.584Z,31.40
2023-01-31T06:55:47.115Z,33.77
2023-01-31T06:58:15.689Z,27.40
2023-01-31T07:00:44.188Z,31.27
2023-01-31T07:03:13.093Z,31.40
2023-01-31T07:05:41.656Z,36.63
2023-01-31T07:08:10.240Z,34.67
2023-01-31T07:10:40.553Z,36.67
2023-01-31T07:13:09.044Z,39.53
2023-01-31T07:15:37.561Z,37.43
2023-01-31T07:18:06.459Z,49.73
2023-01-31T07:20:35.091Z,77.33
2023-01-31T07:23:03.699Z,17.67
2023-01-31T07:25:34.339Z,30.57
2023-01-31T07:28:04.986Z,61.53
2023-01-31T07:30:33.805Z,70.67
2023-01-31T07:33:02.805Z,62.77
2023-01-31T07:35:31.350Z,66.53
2023-01-31T07:37:59.896Z,61.33
2023-01-31T07:40:28.494Z,59.17
2023-01-31T07:43:00.446Z,56.07
2023-01-31T07:45:30.980Z,67.33
2023-01-31T07:48:00.687Z,69.50
2023-01-31T07:50:29.760Z,69.63
2023-01-31T07:52:59.988Z,62.17
2023-01-31T07:55:28.716Z,53.33
2023-01-31T07:57:57.250Z,60.93
2023-01-31T08:00:45.447Z,44.00
2023-01-31T08:03:36.477Z,51.37
2023-01-31T08:06:08.720Z,40.70
2023-01-31T08:08:37.959Z,44.00
2023-01-31T08:11:06.990Z,41.67
2023-01-31T08:13:36.475Z,44.23
2023-01-31T08:16:05.744Z,48.07
2023-01-31T08:18:35.779Z,29.10
2023-01-31T08:21:04.550Z,35.87
2023-01-31T08:23:33.091Z,47.20
2023-01-31T08:26:03.268Z,39.23
2023-01-31T08:28:32.838Z,48.23
2023-01-31T08:31:08.954Z,65.27
2023-01-31T08:33:39.884Z,26.23
2023-01-31T08:36:13.048Z,112.83
2023-01-31T08:38:42.323Z,19.03
2023-01-31T08:41:11.384Z,38.87
2023-01-31T08:43:54.119Z,80.47
2023-01-31T08:46:25.928Z,70.63
2023-01-31T08:48:56.331Z,63.17
2023-01-31T08:51:25.574Z,60.73
2023-01-31T08:53:54.175Z,62.83
2023-01-31T08:56:26.262Z,38.17
2023-01-31T08:58:55.586Z,55.07
2023-01-31T09:01:24.436Z,47.37
2023-01-31T09:03:57.189Z,47.03
2023-01-31T09:06:29.114Z,55.03
2023-01-31T09:08:58.892Z,53.73
2023-01-31T09:11:30.433Z,51.83
2023-01-31T09:13:59.126Z,47.33
2023-01-31T09:16:27.967Z,58.73
2023-01-31T09:18:57.625Z,44.63
2023-01-31T09:21:27.979Z,46.43
2023-01-31T09:23:58.434Z,55.37
2023-01-31T09:26:27.254Z,44.33
2023-01-31T09:28:56.336Z,43.87
2023-01-31T09:31:25.518Z,39.20
2023-01-31T09:33:55.073Z,43.77
2023-01-31T09:36:25.415Z,40.97
2023-01-31T09:38:57.807Z,47.37
2023-01-31T09:41:32.175Z,47.13
2023-01-31T09:44:04.331Z,51.57
2023-01-31T09:46:38.584Z,28.90
2023-01-31T09:49:10.393Z,23.47
2023-01-31T09:51:40.986Z,42.30
2023-01-31T09:54:21.310Z,33.30
2023-01-31T09:56:57.864Z,32.50
2023-01-31T09:59:33.820Z,45.30
2023-01-31T10:02:15.907Z,39.60
2023-01-31T10:04:59.351Z,30.07
2023-01-31T10:07:32.934Z,43.13
2023-01-31T10:10:13.814Z,40.30
2023-01-31T10:12:49.131Z,34.73
2023-01-31T10:15:24.831Z,20.73
2023-01-31T10:17:59.140Z,20.53
2023-01-31T10:20:37.177Z,26.50
2023-01-31T10:23:12.003Z,27.93
2023-01-31T10:25:48.228Z,29.23
2023-01-31T10:28:23.534Z,34.17
2023-01-31T10:31:00.473Z,33.70
2023-01-31T10:33:40.389Z,23.17
2023-01-31T10:36:16.299Z,34.97
2023-01-31T10:38:56.125Z,30.50
2023-01-31T10:41:36.626Z,42.07
2023-01-31T10:44:09.068Z,38.97
2023-01-31T10:46:37.945Z,43.97
2023-01-31T10:49:07.072Z,52.63
2023-01-31T10:51:52.351Z,47.97
2023-01-31T10:54:34.932Z,35.20
2023-01-31T10:57:05.535Z,41.93
2023-01-31T10:59:39.229Z,42.40
2023-01-31T11:02:20.322Z,37.23
2023-01-31T11:04:51.143Z,38.70
2023-01-31T11:07:20.303Z,42.10
2023-01-31T11:09:54.667Z,43.47
2023-01-31T11:12:42.628Z,39.47
2023-01-31T11:15:19.016Z,48.33
2023-01-31T11:17:49.052Z,39.00
2023-01-31T11:20:25.531Z,36.10
2023-01-31T11:22:55.493Z,34.23
2023-01-31T11:25:26.285Z,42.33
2023-01-31T11:27:59.741Z,51.57
2023-01-31T11:30:31.422Z,44.33
2023-01-31T11:33:00.494Z,31.40
2023-01-31T11:35:30.716Z,19.80
2023-01-31T11:38:00.976Z,24.97
2023-01-31T11:40:33.616Z,22.93
2023-01-31T11:43:05.204Z,30.20
2023-01-31T11:45:35.900Z,23.70
2023-01-31T11:48:12.833Z,28.50
2023-01-31T11:50:44.564Z,38.67
2023-01-31T11:53:20.813Z,58.73
2023-01-31T11:55:51.712Z,34.50
2023-01-31T11:58:24.997Z,32.03
2023-01-31T12:00:59.925Z,26.17
2023-01-31T12:03:30.020Z,29.77
2023-01-31T12:06:03.731Z,25.03
2023-01-31T12:08:36.031Z,33.07
2023-01-31T12:11:08.507Z,29.53
2023-01-31T12:13:50.119Z,24.93
2023-01-31T12:16:22.668Z,23.90
2023-01-31T12:19:09.409Z,25.60
2023-01-31T12:21:51.170Z,25.40
2023-01-31T12:24:30.873Z,26.87
2023-01-31T12:27:06.314Z,23.67
2023-01-31T12:29:55.133Z,24.63
2023-01-31T12:32:41.381Z,27.60
2023-01-31T12:35:32.248Z,18.37
2023-01-31T12:38:10.351Z,25.57
2023-01-31T12:40:44.710Z,21.73
2023-01-31T12:43:44.126Z,29.43
2023-01-31T12:46:21.599Z,24.50
2023-01-31T12:49:17.426Z,21.93
2023-01-31T12:51:59.641Z,25.60
2023-01-31T12:54:43.230Z,21.87
2023-01-31T12:57:26.831Z,17.57
2023-01-31T13:00:05.875Z,20.83
2023-01-31T13:02:42.643Z,19.73
2023-01-31T13:05:21.804Z,19.90
2023-01-31T13:07:55.553Z,22.17
2023-01-31T13:10:35.196Z,25.77
2023-01-31T13:13:07.059Z,29.97
2023-01-31T13:15:44.820Z,37.73
2023-01-31T13:18:16.088Z,36.77
2023-01-31T13:20:48.464Z,38.87
2023-01-31T13:23:25.548Z,32.67
2023-01-31T13:25:59.278Z,41.40
2023-01-31T13:28:32.032Z,32.63
2023-01-31T13:31:03.291Z,32.93
2023-01-31T13:33:37.942Z,32.20
2023-01-31T13:36:20.487Z,34.20
2023-01-31T13:38:49.567Z,29.17
2023-01-31T13:41:26.058Z,31.53
2023-01-31T13:43:54.828Z,24.10
2023-01-31T13:46:28.851Z,26.00
2023-01-31T13:49:03.338Z,26.50
2023-01-31T13:51:42.781Z,22.47
2023-01-31T13:54:19.803Z,17.87
2023-01-31T13:56:54.031Z,21.80
2023-01-31T13:59:25.420Z,26.73
2023-01-31T14:01:56.241Z,30.80
2023-01-31T14:04:37.189Z,25.97
2023-01-31T14:07:25.770Z,23.67
2023-01-31T14:10:37.021Z,30.60
2023-01-31T14:13:40.458Z,47.93
2023-01-31T14:16:38.899Z,62.53
2023-01-31T14:19:22.743Z,64.77
2023-01-31T14:21:58.236Z,63.47
2023-01-31T14:25:06.124Z,66.27
2023-01-31T14:27:47.575Z,43.40
2023-01-31T14:30:37.106Z,78.13
2023-01-31T14:33:25.055Z,89.23
2023-01-31T14:36:32.323Z,71.17
2023-01-31T14:39:41.379Z,63.77
2023-01-31T14:42:28.880Z,37.13
2023-01-31T14:45:21.976Z,34.42
2023-01-31T14:48:13.074Z,67.13
2023-01-31T14:50:56.616Z,51.43
2023-01-31T14:54:01.206Z,35.20
2023-01-31T14:56:53.085Z,46.97
2023-01-31T14:59:43.038Z,40.00
2023-01-31T15:02:41.869Z,50.60
2023-01-31T15:05:15.633Z,52.43
2023-01-31T15:08:28.229Z,37.23
2023-01-31T15:11:03.412Z,45.50
2023-01-31T15:13:49.287Z,42.27
2023-01-31T15:16:26.813Z,44.60
2023-01-31T15:19:06.505Z,36.73
2023-01-31T15:21:40.782Z,18.98
2023-01-31T15:24:18.459Z,52.80
2023-01-31T15:26:48.210Z,36.53
2023-01-31T15:29:23.550Z,33.53
2023-01-31T15:31:55.314Z,31.10
2023-01-31T15:34:29.168Z,33.57
2023-01-31T15:37:05.740Z,32.23
2023-01-31T15:39:40.169Z,43.90
2023-01-31T15:42:25.620Z,28.25
2023-01-31T15:45:24.152Z,46.43
2023-01-31T15:48:00.723Z,36.33
2023-01-31T15:50:32.036Z,39.33
2023-01-31T15:53:05.294Z,58.93
2023-01-31T15:55:36.398Z,54.17
2023-01-31T15:58:07.188Z,56.23
2023-01-31T16:00:39.024Z,59.00
2023-01-31T16:03:08.895Z,57.53
2023-01-31T16:05:39.397Z,60.23
2023-01-31T16:08:27.319Z,68.63
2023-01-31T16:10:56.175Z,56.50
2023-01-31T16:13:25.536Z,60.43
2023-01-31T16:15:56.167Z,68.43
2023-01-31T16:18:25.489Z,35.27
2023-01-31T16:20:58.614Z,33.03
2023-01-31T16:23:31.557Z,37.43
2023-01-31T16:26:12.092Z,33.23
2023-01-31T16:28:44.161Z,33.37
2023-01-31T16:31:17.431Z,41.20
2023-01-31T16:33:52.189Z,42.57
2023-01-31T16:36:25.818Z,49.27
2023-01-31T16:39:00.839Z,53.00
2023-01-31T16:41:52.256Z,61.03
2023-01-31T16:44:23.291Z,50.93
2023-01-31T16:46:53.993Z,48.77
2023-01-31T16:49:24.963Z,45.03
2023-01-31T16:51:57.523Z,42.77
2023-01-31T16:54:31.056Z,38.03
2023-01-31T16:57:22.613Z,44.30
2023-01-31T16:59:53.044Z,41.50
2023-01-31T17:02:27.303Z,41.47
2023-01-31T17:04:58.104Z,38.83
2023-01-31T17:07:30.298Z,49.83
2023-01-31T17:10:02.249Z,39.17
2023-01-31T17:12:32.561Z,41.33
2023-01-31T17:15:03.628Z,45.00
2023-01-31T17:17:37.579Z,45.77
2023-01-31T17:20:06.981Z,52.23
2023-01-31T17:22:35.631Z,53.50
2023-01-31T17:25:04.329Z,46.10
2023-01-31T17:27:33.071Z,48.77
2023-01-31T17:30:01.998Z,53.67
2023-01-31T17:32:32.307Z,48.83
2023-01-31T17:35:03.294Z,45.63
2023-01-31T17:37:32.235Z,46.47
2023-01-31T17:40:01.964Z,42.20
2023-01-31T17:42:30.777Z,45.83
2023-01-31T17:44:59.310Z,55.00
2023-01-31T17:47:28.278Z,57.53
2023-01-31T17:49:57.537Z,52.37
2023-01-31T17:52:28.040Z,52.97
2023-01-31T17:54:56.610Z,51.90
2023-01-31T17:57:25.285Z,49.57
2023-01-31T17:59:53.790Z,53.23
2023-01-31T18:02:22.624Z,61.37
2023-01-31T18:04:51.264Z,56.70
2023-01-31T18:07:19.867Z,51.30
2023-01-31T18:09:50.347Z,47.33
2023-01-31T18:12:19.328Z,38.87
2023-01-31T18:14:47.967Z,47.20
2023-01-31T18:17:16.693Z,42.67
2023-01-31T18:19:45.481Z,45.13
2023-01-31T18:22:14.360Z,39.03
2023-01-31T18:24:43.045Z,46.37
2023-01-31T18:27:13.478Z,41.97
2023-01-31T18:29:42.541Z,48.73
2023-01-31T18:32:11.234Z,39.87
2023-01-31T18:34:41.068Z,49.57
2023-01-31T18:37:19.743Z,61.43
2023-01-31T18:39:50.401Z,40.67
2023-01-31T18:42:20.781Z,32.17
2023-01-31T18:44:50.191Z,34.17
2023-01-31T18:47:18.752Z,34.73
2023-01-31T18:49:47.480Z,41.10
2023-01-31T18:52:17.026Z,33.10
2023-01-31T18:54:49.151Z,36.73
2023-01-31T18:57:17.669Z,33.13
2023-01-31T18:59:47.661Z,36.40
2023-01-31T19:02:16.342Z,43.60
2023-01-31T19:04:47.730Z,44.83
2023-01-31T19:07:16.904Z,40.70
2023-01-31T19:09:45.727Z,37.80
2023-01-31T19:12:14.432Z,35.60
2023-01-31T19:14:43.308Z,43.13
2023-01-31T19:17:13.714Z,69.07
2023-01-31T19:19:42.314Z,53.93
2023-01-31T19:22:11.349Z,61.77
2023-01-31T19:24:40.135Z,55.37
2023-01-31T19:27:08.860Z,75.00
2023-01-31T19:29:39.867Z,78.53
2023-01-31T19:32:08.700Z,96.17
2023-01-31T19:34:39.046Z,70.60
2023-01-31T19:37:08.142Z,74.07
2023-01-31T19:39:36.746Z,77.50
2023-01-31T19:42:05.778Z,91.37
2023-01-31T19:44:34.290Z,82.23
2023-01-31T19:47:03.229Z,53.77
2023-01-31T19:49:33.342Z,72.50
2023-01-31T19:52:04.057Z,54.70
2023-01-31T19:54:32.609Z,49.07
2023-01-31T19:57:01.280Z,55.70
2023-01-31T19:59:30.055Z,50.30
2023-01-31T20:01:59.035Z,49.20
2023-01-31T20:04:28.847Z,53.63
2023-01-31T20:06:57.930Z,55.70
2023-01-31T20:09:28.062Z,59.43
2023-01-31T20:11:56.635Z,53.67
2023-01-31T20:14:25.339Z,52.10
2023-01-31T20:16:54.104Z,46.70
2023-01-31T20:19:23.014Z,46.33
2023-01-31T20:21:51.859Z,49.87
2023-01-31T20:24:20.861Z,46.23
2023-01-31T20:26:51.066Z,46.70
2023-01-31T20:29:19.833Z,43.10
2023-01-31T20:31:49.700Z,43.97
2023-01-31T20:34:18.599Z,35.53
2023-01-31T20:36:47.345Z,39.23
2023-01-31T20:39:16.107Z,35.47
2023-01-31T20:41:44.641Z,42.17
2023-01-31T20:44:16.688Z,40.13
2023-01-31T20:46:45.394Z,38.83
2023-01-31T20:49:13.955Z,42.30
2023-01-31T20:51:42.527Z,46.00
2023-01-31T20:54:11.142Z,45.63
2023-01-31T20:56:40.128Z,45.90
2023-01-31T20:59:08.746Z,43.87
2023-01-31T21:01:38.892Z,46.60
2023-01-31T21:04:08.395Z,46.83
2023-01-31T21:06:36.972Z,42.93
2023-01-31T21:09:06.081Z,43.20
2023-01-31T21:11:34.915Z,41.63
2023-01-31T21:14:03.640Z,42.70
2023-01-31T21:16:32.633Z,41.67
2023-01-31T21:19:02.787Z,37.77
2023-01-31T21:21:33.534Z,36.30
2023-01-31T21:24:02.349Z,39.63
2023-01-31T21:26:31.175Z,37.03
2023-01-31T21:29:02.268Z,40.40
2023-01-31T21:31:32.153Z,43.47
2023-01-31T21:34:05.802Z,43.23
2023-01-31T21:36:36.420Z,38.03
2023-01-31T21:39:05.770Z,42.80
2023-01-31T21:41:52.237Z,41.80
2023-01-31T21:44:20.763Z,41.37
2023-01-31T21:46:50.007Z,43.37
2023-01-31T21:49:24.519Z,39.73
2023-01-31T21:51:53.636Z,41.00
2023-01-31T21:54:22.759Z,40.53
2023-01-31T21:56:57.002Z,41.80
2023-01-31T21:59:26.057Z,42.60
2023-01-31T22:01:54.766Z,34.97
2023-01-31T22:04:25.204Z,23.48
2023-01-31T22:06:56.390Z,33.90
2023-01-31T22:09:28.178Z,31.33
2023-01-31T22:12:00.243Z,39.37
2023-01-31T22:14:34.681Z,37.43
2023-01-31T22:17:03.912Z,34.67
2023-01-31T22:19:35.833Z,31.77
2023-01-31T22:22:04.446Z,33.90
2023-01-31T22:24:34.643Z,34.30
2023-01-31T22:27:03.182Z,37.77
2023-01-31T22:29:31.880Z,34.33
2023-01-31T22:32:00.659Z,34.40
2023-01-31T22:34:29.300Z,33.37
2023-01-31T22:37:00.176Z,32.67
2023-01-31T22:39:29.403Z,29.63
2023-01-31T22:42:00.154Z,31.90
2023-01-31T22:44:28.763Z,28.90
2023-01-31T22:46:57.304Z,33.50
2023-01-31T22:49:26.017Z,34.88
2023-01-31T22:51:54.581Z,28.17
2023-01-31T22:54:24.885Z,29.10
2023-01-31T22:56:53.473Z,31.83
2023-01-31T22:59:22.298Z,35.03
2023-01-31T23:01:50.980Z,30.80
2023-01-31T23:04:20.494Z,32.03
2023-01-31T23:06:49.026Z,33.37
2023-01-31T23:09:17.393Z,35.97
2023-01-31T23:11:47.432Z,37.67
2023-01-31T23:14:16.142Z,32.27
2023-01-31T23:17:01.958Z,33.03
2023-01-31T23:19:30.559Z,40.60
2023-01-31T23:21:59.032Z,48.40
2023-01-31T23:24:27.528Z,48.53
2023-01-31T23:26:57.815Z,44.00
2023-01-31T23:29:26.589Z,51.73
2023-01-31T23:31:55.190Z,56.60
2023-01-31T23:34:23.607Z,53.93
2023-01-31T23:36:52.717Z,61.17
2023-01-31T23:39:21.124Z,61.63
2023-01-31T23:41:49.541Z,63.20
2023-01-31T23:44:19.354Z,51.33
2023-01-31T23:46:47.775Z,35.97
2023-01-31T23:49:16.205Z,56.73
2023-01-31T23:51:44.606Z,28.33
2023-01-31T23:54:13.186Z,33.93
2023-01-31T23:56:41.914Z,31.93
2023-01-31T23:59:10.621Z,32.13
